Time;durP1;ratioP1;P1;durP2;ratioP2;P2;SDS_P1;SDS_P2;PMS_P1;PMS_P2;Temp;Humidity;BMP_temperature;BMP_pressure;BME280_temperature;BME280_humidity;BME280_pressure;Samples;Min_cycle;Max_cycle;Signal;HPM_P1;HPM_P2
2020/12/30 03:47:37;;;;;;;27.65;16.75;;;6.70;77.20;;;;;;4765726;30;20094;-75
2020/12/30 03:50:04;;;;;;;29.35;17.55;;;6.70;77.20;;;;;;4782131;30;20040;-75
2020/12/30 03:52:30;;;;;;;35.35;18.92;;;6.60;77.40;;;;;;4781961;30;20039;-75
2020/12/30 03:54:55;;;;;;;37.45;20.00;;;6.60;77.70;;;;;;4782086;30;20039;-75
2020/12/30 03:57:21;;;;;;;35.85;19.58;;;6.60;77.40;;;;;;4782022;30;20030;-77
2020/12/30 03:59:47;;;;;;;33.10;18.85;;;6.70;77.30;;;;;;4782123;30;20032;-75
2020/12/30 04:02:12;;;;;;;32.25;19.80;;;6.70;77.10;;;;;;4780418;30;20035;-75
2020/12/30 04:04:38;;;;;;;33.40;19.35;;;6.60;77.30;;;;;;4780788;30;20244;-74
2020/12/30 04:07:04;;;;;;;42.17;19.88;;;6.50;77.60;;;;;;4780926;30;20031;-75
2020/12/30 04:09:30;;;;;;;35.42;19.30;;;6.50;77.80;;;;;;4795691;30;20028;-75
2020/12/30 04:11:55;;;;;;;34.60;20.27;;;6.60;77.80;;;;;;4781650;30;20032;-74
2020/12/30 04:14:21;;;;;;;33.30;17.77;;;6.70;77.60;;;;;;4795498;30;20098;-75
2020/12/30 04:16:47;;;;;;;31.67;20.02;;;6.70;77.30;;;;;;4795429;30;20031;-75
2020/12/30 04:19:12;;;;;;;34.10;19.88;;;6.80;77.20;;;;;;4795407;30;20035;-75
2020/12/30 04:21:39;;;;;;;39.90;19.90;;;6.80;77.00;;;;;;4795271;30;20036;-75
2020/12/30 04:24:05;;;;;;;28.95;18.40;;;6.80;76.90;;;;;;4795390;30;20036;-75
2020/12/30 04:26:31;;;;;;;36.67;20.92;;;6.80;77.00;;;;;;4795081;30;20160;-75
2020/12/30 04:28:56;;;;;;;35.58;21.27;;;6.80;76.80;;;;;;4795178;30;20456;-76
2020/12/30 04:31:22;;;;;;;33.97;20.27;;;6.80;76.90;;;;;;4781206;30;20106;-75
2020/12/30 04:33:48;;;;;;;36.25;20.10;;;6.80;76.80;;;;;;4781321;30;20040;-75
2020/12/30 04:36:14;;;;;;;36.75;21.58;;;6.90;76.90;;;;;;4795154;30;20054;-76
2020/12/30 04:38:40;;;;;;;39.72;22.05;;;6.90;77.00;;;;;;4795174;30;20280;-75
2020/12/30 04:41:09;;;;;;;41.50;22.33;;;6.90;76.90;;;;;;4781103;30;20019;-75
2020/12/30 04:43:37;;;;;;;34.53;19.60;;;7.00;76.90;;;;;;4779379;30;20056;-75
2020/12/30 04:46:03;;;;;;;33.75;21.00;;;7.00;76.90;;;;;;4780714;30;20047;-75
2020/12/30 04:48:32;;;;;;;33.58;20.45;;;7.00;76.70;;;;;;4781239;30;20027;-75
2020/12/30 04:50:58;;;;;;;35.42;21.23;;;7.00;76.90;;;;;;4781115;30;20043;-75
2020/12/30 04:53:24;;;;;;;36.30;21.33;;;6.90;77.00;;;;;;4780315;30;20031;-75
2020/12/30 04:55:51;;;;;;;35.55;20.70;;;7.00;77.10;;;;;;4781090;30;20032;-75
2020/12/30 04:58:18;;;;;;;;;;;7.00;77.00;;;;;;4780353;30;20093;-75
2020/12/30 05:00:46;;;;;;;33.55;20.83;;;7.10;76.90;;;;;;4764812;30;19921;-75
2020/12/30 05:03:12;;;;;;;34.83;20.33;;;7.10;76.70;;;;;;4780886;30;20035;-75
2020/12/30 05:05:39;;;;;;;33.35;20.42;;;7.10;76.60;;;;;;4779913;30;20035;-75
2020/12/30 05:08:11;;;;;;;31.55;20.27;;;7.10;76.50;;;;;;4779746;30;20036;-76
2020/12/30 05:10:44;;;;;;;42.05;21.98;;;7.20;76.50;;;;;;4780796;30;20031;-75
2020/12/30 05:13:09;;;;;;;35.65;20.23;;;7.10;76.60;;;;;;4794632;30;20034;-75
2020/12/30 05:15:35;;;;;;;40.40;22.75;;;7.20;76.60;;;;;;4779725;30;20065;-75
2020/12/30 05:18:06;;;;;;;36.15;21.67;;;7.20;76.50;;;;;;4779525;30;20023;-76
2020/12/30 05:20:35;;;;;;;38.78;22.25;;;7.20;76.60;;;;;;4779554;30;20032;-75
2020/12/30 05:23:19;;;;;;;38.15;22.52;;;7.20;76.60;;;;;;4780441;30;20413;-75
2020/12/30 05:25:45;;;;;;;36.55;22.75;;;7.20;76.50;;;;;;4764625;30;20038;-75
2020/12/30 05:28:12;;;;;;;41.65;24.63;;;7.30;76.40;;;;;;4780321;30;20215;-75
2020/12/30 05:30:43;;;;;;;40.33;22.65;;;7.20;76.20;;;;;;4779474;30;20276;-75
2020/12/30 05:33:09;;;;;;;47.28;25.95;;;7.20;76.10;;;;;;4764368;30;20050;-75
2020/12/30 05:35:35;;;;;;;43.78;22.95;;;7.20;76.20;;;;;;4779719;30;20035;-74
2020/12/30 05:38:02;;;;;;;43.08;24.23;;;7.10;76.40;;;;;;4779219;30;20032;-77
2020/12/30 05:40:35;;;;;;;44.15;24.77;;;7.10;76.70;;;;;;4780326;30;20040;-75
2020/12/30 05:43:15;;;;;;;41.25;22.98;;;7.10;76.70;;;;;;4780257;30;20069;-75
2020/12/30 05:45:51;;;;;;;36.90;22.08;;;7.10;76.60;;;;;;4779003;30;20035;-75
2020/12/30 05:48:18;;;;;;;42.30;22.50;;;7.10;76.50;;;;;;4793943;30;20047;-75
2020/12/30 05:50:51;;;;;;;38.67;23.50;;;7.10;76.40;;;;;;4794132;30;20093;-75
2020/12/30 05:53:18;;;;;;;41.22;23.95;;;7.00;76.50;;;;;;4778216;30;20023;-75
2020/12/30 05:55:47;;;;;;;39.28;23.10;;;7.10;76.50;;;;;;4779726;30;20102;-75
2020/12/30 05:58:15;;;;;;;39.28;22.98;;;7.00;76.50;;;;;;4778997;30;20032;-75
2020/12/30 06:00:41;;;;;;;46.88;22.38;;;7.00;76.30;;;;;;4778623;30;20027;-74
2020/12/30 06:03:07;;;;;;;40.17;24.10;;;7.00;76.40;;;;;;4784841;30;20045;-74
2020/12/30 06:05:33;;;;;;;46.50;22.90;;;7.00;76.50;;;;;;4787423;29;20032;-74
2020/12/30 06:08:00;;;;;;;40.10;23.43;;;7.00;76.40;;;;;;4786742;30;20031;-74
2020/12/30 06:10:27;;;;;;;34.75;21.88;;;7.00;76.40;;;;;;4793941;29;20344;-74
2020/12/30 06:12:53;;;;;;;;;;;7.00;76.90;;;;;;4787949;30;20093;-74
2020/12/30 06:15:27;;;;;;;41.30;23.60;;;7.00;75.80;;;;;;4788827;30;19910;-75
2020/12/30 06:17:54;;;;;;;39.35;21.55;;;6.90;75.70;;;;;;4783669;30;20063;-74
2020/12/30 06:20:23;;;;;;;40.38;23.35;;;6.90;75.70;;;;;;4787584;30;20047;-74
2020/12/30 06:22:56;;;;;;;42.15;23.48;;;6.80;76.00;;;;;;4789396;29;20035;-74
2020/12/30 06:25:24;;;;;;;37.45;23.08;;;6.80;76.20;;;;;;4785214;30;20028;-74
2020/12/30 06:27:51;;;;;;;39.83;21.98;;;6.80;76.40;;;;;;4787459;29;20039;-74
2020/12/30 06:30:17;;;;;;;37.20;20.73;;;6.80;76.50;;;;;;4787117;30;20046;-74
2020/12/30 06:32:42;;;;;;;38.33;21.30;;;6.80;76.50;;;;;;4789578;30;20325;-74
2020/12/30 06:35:08;;;;;;;32.88;19.67;;;6.70;76.70;;;;;;4783404;30;20028;-74
2020/12/30 06:37:35;;;;;;;36.08;20.00;;;6.70;76.70;;;;;;4787386;30;20080;-73
2020/12/30 06:40:50;;;;;;;40.90;21.88;;;6.70;76.90;;;;;;4787939;30;20240;-74
2020/12/30 06:43:50;;;;;;;39.33;20.10;;;6.70;76.90;;;;;;4755405;30;20236;-74
2020/12/30 06:46:35;;;;;;;37.90;20.63;;;6.70;76.80;;;;;;4770144;30;20075;-75
2020/12/30 06:49:03;;;;;;;35.58;19.30;;;6.70;76.80;;;;;;4760068;30;20036;-76
2020/12/30 06:51:35;;;;;;;34.08;19.10;;;6.70;76.90;;;;;;4760165;30;20355;-76
2020/12/30 06:54:02;;;;;;;36.15;20.63;;;6.70;76.80;;;;;;4759963;30;20450;-75
2020/12/30 06:56:47;;;;;;;39.00;20.45;;;6.70;76.60;;;;;;4764766;30;20039;-76
2020/12/30 06:59:17;;;;;;;30.75;19.77;;;6.70;76.60;;;;;;4749982;30;20043;-75
2020/12/30 07:02:00;;;;;;;36.72;20.35;;;6.70;76.50;;;;;;4750231;30;20043;-75
2020/12/30 07:04:28;;;;;;;42.38;21.27;;;6.70;76.40;;;;;;4766437;30;20037;-76
2020/12/30 07:06:54;;;;;;;33.47;19.58;;;6.60;76.40;;;;;;4771280;30;20047;-76
2020/12/30 07:09:35;;;;;;;34.03;19.70;;;6.60;76.50;;;;;;4750843;30;20052;-76
2020/12/30 07:12:05;;;;;;;32.63;20.20;;;6.60;76.70;;;;;;4778102;30;20032;-75
2020/12/30 07:14:32;;;;;;;34.55;19.13;;;6.60;76.70;;;;;;4764928;30;20088;-75
2020/12/30 07:17:03;;;;;;;36.35;19.17;;;6.60;76.80;;;;;;4789525;30;20023;-75
2020/12/30 07:19:30;;;;;;;32.15;18.45;;;6.60;76.70;;;;;;4784690;30;20035;-75
2020/12/30 07:21:56;;;;;;;;;;;6.50;76.70;;;;;;4782792;30;20067;-75
2020/12/30 07:24:27;;;;;;;36.37;18.80;;;6.60;76.60;;;;;;4790806;29;20093;-76
2020/12/30 07:26:55;;;;;;;34.03;18.50;;;6.50;76.40;;;;;;4791291;29;20158;-75
2020/12/30 07:29:22;;;;;;;30.58;17.65;;;6.50;76.50;;;;;;4807986;29;20043;-76
2020/12/30 07:31:53;;;;;;;29.83;18.15;;;6.40;76.60;;;;;;4787896;30;20058;-76
2020/12/30 07:34:22;;;;;;;32.28;17.85;;;6.40;76.50;;;;;;4788776;30;20399;-75
2020/12/30 07:36:49;;;;;;;30.33;18.30;;;6.50;76.40;;;;;;4789282;29;20334;-75
2020/12/30 07:39:16;;;;;;;34.35;17.88;;;6.50;76.20;;;;;;4793169;29;20039;-75
2020/12/30 07:41:42;;;;;;;;;;;6.50;76.10;;;;;;4789815;30;20032;-75
2020/12/30 07:44:08;;;;;;;31.38;18.30;;;6.50;76.00;;;;;;4782913;30;19935;-75
2020/12/30 07:46:34;;;;;;;30.95;17.25;;;6.50;75.90;;;;;;4786191;29;20048;-75
2020/12/30 07:49:20;;;;;;;31.80;17.02;;;6.50;75.80;;;;;;4790888;30;20207;-76
2020/12/30 07:51:48;;;;;;;30.38;17.80;;;6.60;75.70;;;;;;4785765;30;20061;-75
2020/12/30 07:54:18;;;;;;;29.33;18.20;;;6.50;75.90;;;;;;4786940;30;20035;-76
2020/12/30 07:56:45;;;;;;;34.40;19.98;;;6.50;75.90;;;;;;4784833;30;20031;-75
2020/12/30 07:59:17;;;;;;;34.95;20.33;;;6.50;76.00;;;;;;4789507;30;20027;-75
2020/12/30 08:01:56;;;;;;;44.22;22.95;;;6.60;76.00;;;;;;4783618;30;20114;-75
2020/12/30 08:04:21;;;;;;;38.47;21.35;;;6.50;75.90;;;;;;4785952;30;20102;-75
2020/12/30 08:06:48;;;;;;;40.10;23.70;;;6.60;76.00;;;;;;4787756;30;20331;-76
2020/12/30 08:09:14;;;;;;;40.13;21.90;;;6.40;76.30;;;;;;4790998;30;20077;-75
2020/12/30 08:11:55;;;;;;;42.97;21.80;;;6.50;76.50;;;;;;4782791;30;20059;-75
2020/12/30 08:14:23;;;;;;;50.00;25.33;;;6.60;76.50;;;;;;4782631;30;20031;-75
2020/12/30 08:16:53;;;;;;;51.60;26.17;;;6.60;76.40;;;;;;4788985;29;20038;-75
2020/12/30 08:19:30;;;;;;;49.88;27.48;;;6.60;76.50;;;;;;4788029;30;20263;-74
2020/12/30 08:22:02;;;;;;;;;;;6.70;76.40;;;;;;4786728;30;20076;-75
2020/12/30 08:24:36;;;;;;;41.30;23.60;;;6.70;75.90;;;;;;4790363;30;19953;-74
2020/12/30 08:27:03;;;;;;;46.72;24.70;;;6.60;76.20;;;;;;4784191;30;20068;-75
2020/12/30 08:29:30;;;;;;;44.95;24.70;;;6.70;76.50;;;;;;4790577;30;20042;-75
2020/12/30 08:31:58;;;;;;;38.22;22.70;;;6.70;76.50;;;;;;4782027;30;20215;-75
2020/12/30 08:34:31;;;;;;;47.38;24.58;;;6.80;76.50;;;;;;4792212;30;20270;-75
2020/12/30 08:37:08;;;;;;;44.15;24.98;;;6.90;76.60;;;;;;4791091;29;20042;-75
2020/12/30 08:39:44;;;;;;;;;;;6.90;76.40;;;;;;4780360;30;20450;-75
2020/12/30 08:42:38;;;;;;;39.58;22.33;;;7.00;76.10;;;;;;4811842;29;19966;-76
2020/12/30 08:45:07;;;;;;;39.33;21.60;;;7.10;75.50;;;;;;4775443;30;20353;-75
2020/12/30 08:47:38;;;;;;;35.95;20.65;;;7.10;75.10;;;;;;4788796;30;20111;-75
2020/12/30 08:50:13;;;;;;;37.05;20.88;;;7.20;75.10;;;;;;4789173;30;20032;-76
2020/12/30 08:52:40;;;;;;;35.83;20.50;;;7.20;75.10;;;;;;4784429;30;20034;-75
2020/12/30 08:55:06;;;;;;;37.67;21.63;;;7.20;75.10;;;;;;4787153;30;20110;-75
2020/12/30 08:57:32;;;;;;;36.43;21.03;;;7.30;74.70;;;;;;4769702;30;20070;-75
2020/12/30 09:00:14;;;;;;;36.47;20.55;;;7.20;74.50;;;;;;4783768;30;20031;-74
2020/12/30 09:02:40;;;;;;;34.72;18.85;;;7.20;74.50;;;;;;4778792;30;20165;-75
2020/12/30 09:05:06;;;;;;;36.05;20.50;;;7.30;74.30;;;;;;4787341;30;20027;-75
2020/12/30 09:07:32;;;;;;;36.08;19.55;;;7.20;74.40;;;;;;4790224;30;20372;-75
2020/12/30 09:10:01;;;;;;;35.92;19.90;;;7.20;74.30;;;;;;4782555;30;20189;-75
2020/12/30 09:12:28;;;;;;;36.20;18.90;;;7.30;74.60;;;;;;4780843;30;20079;-76
2020/12/30 09:14:54;;;;;;;35.25;19.08;;;7.40;73.80;;;;;;4779815;30;20331;-76
2020/12/30 09:17:20;;;;;;;33.47;18.30;;;7.30;73.40;;;;;;4779390;30;20077;-75
2020/12/30 09:19:45;;;;;;;31.63;18.52;;;7.40;73.90;;;;;;4779195;30;20031;-75
2020/12/30 09:22:11;;;;;;;34.88;19.02;;;7.50;73.50;;;;;;4762163;30;20105;-76
2020/12/30 09:24:42;;;;;;;30.73;17.95;;;7.50;73.30;;;;;;4764625;30;20242;-75
2020/12/30 09:27:20;;;;;;;33.13;18.67;;;7.50;72.90;;;;;;4779091;30;20188;-75
2020/12/30 09:30:06;;;;;;;29.92;16.90;;;7.60;73.00;;;;;;4779132;30;20029;-75
2020/12/30 09:32:32;;;;;;;36.92;19.98;;;7.70;72.90;;;;;;4742326;30;20329;-76
2020/12/30 09:34:59;;;;;;;29.60;15.55;;;7.70;72.30;;;;;;4728495;30;20032;-75
2020/12/30 09:37:25;;;;;;;32.08;17.85;;;7.70;72.10;;;;;;4728037;30;20169;-75
2020/12/30 09:40:08;;;;;;;39.08;19.65;;;7.70;72.40;;;;;;4728309;30;20107;-77
2020/12/30 09:42:34;;;;;;;33.28;18.92;;;7.80;72.50;;;;;;4728298;30;20044;-77
2020/12/30 09:45:01;;;;;;;33.15;18.58;;;7.90;72.20;;;;;;4718998;30;20044;-77
2020/12/30 09:47:27;;;;;;;34.65;17.50;;;8.00;72.10;;;;;;4743872;30;20055;-77
2020/12/30 09:49:53;;;;;;;28.10;17.08;;;8.10;71.80;;;;;;4745936;30;20040;-77
2020/12/30 09:52:18;;;;;;;31.05;17.42;;;8.10;71.10;;;;;;4760039;30;20212;-77
2020/12/30 09:54:44;;;;;;;30.98;17.92;;;8.20;70.60;;;;;;4751014;30;20045;-77
2020/12/30 09:57:10;;;;;;;32.05;17.02;;;8.30;70.60;;;;;;4739038;30;20032;-77
2020/12/30 09:59:35;;;;;;;29.60;17.00;;;8.30;70.60;;;;;;4717279;30;20344;-77
2020/12/30 10:02:01;;;;;;;32.85;18.23;;;8.40;70.40;;;;;;4739372;30;20040;-77
2020/12/30 10:04:27;;;;;;;31.77;18.02;;;8.50;70.00;;;;;;4725205;30;20324;-76
2020/12/30 10:06:52;;;;;;;34.92;18.02;;;8.60;70.20;;;;;;4712265;30;20067;-77
2020/12/30 10:09:18;;;;;;;30.38;17.77;;;8.60;70.70;;;;;;4756538;30;20047;-76
2020/12/30 10:11:44;;;;;;;30.70;17.92;;;8.70;69.90;;;;;;4779554;30;20322;-75
2020/12/30 10:14:09;;;;;;;30.80;18.92;;;8.70;69.00;;;;;;4792596;30;20047;-77
2020/12/30 10:16:35;;;;;;;31.55;17.88;;;8.70;68.90;;;;;;4789799;29;20039;-77
2020/12/30 10:19:01;;;;;;;29.88;16.38;;;8.70;69.20;;;;;;4777466;30;20333;-77
2020/12/30 10:21:31;;;;;;;33.95;16.85;;;8.80;69.00;;;;;;4778196;30;20028;-76
2020/12/30 10:24:00;;;;;;;32.35;17.83;;;8.90;68.90;;;;;;4778009;30;20236;-76
2020/12/30 10:26:26;;;;;;;29.30;17.15;;;8.90;68.50;;;;;;4779459;30;20032;-75
2020/12/30 10:28:52;;;;;;;28.23;16.08;;;9.00;68.20;;;;;;4779248;30;20036;-77
2020/12/30 10:31:18;;;;;;;31.90;16.40;;;9.00;68.10;;;;;;4779298;30;20043;-77
2020/12/30 10:33:44;;;;;;;20.90;13.20;;;9.00;67.80;;;;;;4777932;30;20028;-74
2020/12/30 10:36:09;;;;;;;30.63;13.73;;;9.00;67.10;;;;;;4778304;30;20047;-77
2020/12/30 10:38:36;;;;;;;25.15;14.63;;;9.00;67.20;;;;;;4778046;30;20367;-76
2020/12/30 10:41:02;;;;;;;25.42;14.57;;;9.10;67.20;;;;;;4788389;30;20043;-76
2020/12/30 10:43:28;;;;;;;30.65;15.75;;;9.10;66.50;;;;;;4800650;29;20023;-77
2020/12/30 10:45:54;;;;;;;30.27;15.10;;;9.10;66.30;;;;;;4798508;29;20027;-77
2020/12/30 10:48:19;;;;;;;29.70;13.95;;;9.10;66.50;;;;;;4782776;30;20046;-77
2020/12/30 10:50:45;;;;;;;22.23;13.15;;;9.20;66.30;;;;;;4796468;30;20199;-76
2020/12/30 10:53:11;;;;;;;25.77;13.80;;;9.10;66.00;;;;;;4796377;30;20051;-76
2020/12/30 10:55:36;;;;;;;24.08;13.75;;;9.10;66.40;;;;;;4782694;30;20106;-77
2020/12/30 10:58:02;;;;;;;31.83;14.88;;;9.10;66.30;;;;;;4782606;30;20219;-76
2020/12/30 11:00:28;;;;;;;26.85;13.85;;;9.20;66.30;;;;;;4782126;30;20047;-76
2020/12/30 11:02:54;;;;;;;23.13;13.35;;;9.20;66.10;;;;;;4781285;30;20027;-77
2020/12/30 11:05:19;;;;;;;24.98;14.82;;;9.20;66.10;;;;;;4782347;30;20036;-76
2020/12/30 11:07:45;;;;;;;27.60;15.15;;;9.20;66.00;;;;;;4781301;30;20043;-78
2020/12/30 11:10:12;;;;;;;26.30;14.57;;;9.30;66.20;;;;;;4782527;30;20274;-77
2020/12/30 11:12:38;;;;;;;24.00;14.27;;;9.30;66.00;;;;;;4781438;30;20031;-77
2020/12/30 11:15:07;;;;;;;24.90;14.80;;;9.30;65.90;;;;;;4781274;30;20095;-77
2020/12/30 11:17:33;;;;;;;27.08;14.90;;;9.30;65.80;;;;;;4782031;30;20024;-77
2020/12/30 11:19:59;;;;;;;23.67;13.93;;;9.20;66.00;;;;;;4782390;30;20168;-76
2020/12/30 11:22:26;;;;;;;32.45;17.55;;;9.30;66.20;;;;;;4780893;30;20031;-76
2020/12/30 11:24:51;;;;;;;40.10;20.50;;;9.20;66.10;;;;;;4781890;30;20048;-77
2020/12/30 11:27:17;;;;;;;29.85;15.98;;;9.30;66.00;;;;;;4781161;30;20128;-77
2020/12/30 11:29:43;;;;;;;32.58;17.33;;;9.30;66.00;;;;;;4782142;30;20099;-77
2020/12/30 11:32:09;;;;;;;33.88;17.20;;;9.30;66.00;;;;;;4782083;30;20036;-77
2020/12/30 11:34:35;;;;;;;34.28;19.58;;;9.30;66.10;;;;;;4782008;30;20028;-76
2020/12/30 11:37:01;;;;;;;31.60;17.50;;;9.30;66.20;;;;;;4781258;30;20039;-77
2020/12/30 11:39:26;;;;;;;29.85;17.92;;;9.30;66.20;;;;;;4782364;30;20101;-77
2020/12/30 11:41:52;;;;;;;24.20;14.18;;;9.40;65.90;;;;;;4779377;30;20069;-77
2020/12/30 11:44:22;;;;;;;22.48;13.80;;;9.30;65.90;;;;;;4786825;30;20098;-76
2020/12/30 11:46:51;;;;;;;23.63;13.90;;;9.30;65.80;;;;;;4800599;29;20063;-77
2020/12/30 11:49:18;;;;;;;22.42;13.75;;;9.40;65.90;;;;;;4786870;30;20286;-76
2020/12/30 11:51:44;;;;;;;25.48;13.55;;;9.30;65.90;;;;;;4775184;30;20031;-77
2020/12/30 11:54:10;;;;;;;31.80;17.35;;;9.40;65.90;;;;;;4782147;30;20406;-77
2020/12/30 11:56:35;;;;;;;25.60;14.30;;;9.40;66.10;;;;;;4784459;30;20032;-77
2020/12/30 11:59:01;;;;;;;25.23;14.27;;;9.40;66.00;;;;;;4781350;30;20047;-77
2020/12/30 12:01:34;;;;;;;24.95;14.95;;;9.40;66.00;;;;;;4781585;30;20080;-77
2020/12/30 12:04:00;;;;;;;30.00;14.02;;;9.30;66.40;;;;;;4797380;30;20054;-77
2020/12/30 12:06:27;;;;;;;26.02;14.40;;;9.40;66.40;;;;;;4798305;30;20035;-77
2020/12/30 12:08:53;;;;;;;27.27;14.32;;;9.40;66.10;;;;;;4785011;30;20027;-77
2020/12/30 12:11:19;;;;;;;26.60;15.65;;;9.40;66.20;;;;;;4786502;30;20047;-77
2020/12/30 12:13:45;;;;;;;25.08;14.38;;;9.30;66.20;;;;;;4781888;29;20039;-77
2020/12/30 12:16:12;;;;;;;23.60;15.43;;;9.30;66.60;;;;;;4779186;30;20032;-78
2020/12/30 12:18:38;;;;;;;23.88;14.90;;;9.30;67.30;;;;;;4779262;30;20047;-77
2020/12/30 12:21:04;;;;;;;29.50;15.93;;;9.30;67.40;;;;;;4780732;30;20395;-77
2020/12/30 12:23:30;;;;;;;28.33;14.65;;;9.20;67.70;;;;;;4779308;30;20215;-77
2020/12/30 12:25:57;;;;;;;24.25;14.05;;;9.10;68.00;;;;;;4778901;30;20031;-78
2020/12/30 12:28:55;;;;;;;29.45;15.23;;;9.10;68.00;;;;;;4779180;30;20039;-77
2020/12/30 12:31:20;;;;;;;26.42;14.98;;;9.20;68.70;;;;;;4742323;30;20083;-77
2020/12/30 12:33:46;;;;;;;27.50;15.23;;;9.10;69.00;;;;;;4758846;30;20058;-77
2020/12/30 12:36:16;;;;;;;24.27;14.57;;;9.10;69.40;;;;;;4760501;30;20044;-77
2020/12/30 12:38:42;;;;;;;28.48;15.57;;;9.20;69.70;;;;;;4758429;30;20042;-76
2020/12/30 12:41:08;;;;;;;25.20;16.33;;;9.10;69.70;;;;;;4755747;30;20084;-77
2020/12/30 12:43:34;;;;;;;38.85;24.02;;;9.10;69.90;;;;;;4768819;30;20040;-77
2020/12/30 12:46:00;;;;;;;37.20;22.00;;;9.10;70.20;;;;;;4751977;30;20131;-77
2020/12/30 12:48:26;;;;;;;35.85;19.15;;;9.20;70.10;;;;;;4757915;30;20040;-77
2020/12/30 12:50:51;;;;;;;30.52;18.73;;;9.10;70.20;;;;;;4755702;30;20028;-77
2020/12/30 12:53:17;;;;;;;33.20;18.58;;;9.20;70.20;;;;;;4745094;30;20074;-77
2020/12/30 12:55:43;;;;;;;26.17;14.48;;;9.20;70.40;;;;;;4761488;30;20032;-77
2020/12/30 12:58:09;;;;;;;23.85;13.85;;;9.20;70.40;;;;;;4755326;30;20059;-77
2020/12/30 13:00:34;;;;;;;24.08;13.65;;;9.30;70.10;;;;;;4750533;30;20036;-78
2020/12/30 13:03:00;;;;;;;24.10;12.65;;;9.30;70.00;;;;;;4756905;30;20055;-77
2020/12/30 13:05:26;;;;;;;29.00;15.23;;;9.30;70.50;;;;;;4757210;30;20303;-77
2020/12/30 13:07:51;;;;;;;22.20;12.75;;;9.40;70.40;;;;;;4782593;30;20047;-77
2020/12/30 13:10:17;;;;;;;27.48;13.52;;;9.40;70.30;;;;;;4784603;30;20063;-77
2020/12/30 13:12:43;;;;;;;25.13;14.13;;;9.50;70.60;;;;;;4785692;30;20046;-78
2020/12/30 13:15:08;;;;;;;27.00;13.85;;;9.40;70.40;;;;;;4777379;30;20319;-77
2020/12/30 13:17:34;;;;;;;25.42;13.38;;;9.50;70.50;;;;;;4779466;30;20399;-76
2020/12/30 13:20:00;;;;;;;26.67;14.82;;;9.50;70.50;;;;;;4762549;30;20048;-78
2020/12/30 13:22:26;;;;;;;23.23;14.18;;;9.50;70.60;;;;;;4778222;30;20043;-78
2020/12/30 13:24:51;;;;;;;27.42;14.98;;;9.40;70.20;;;;;;4778434;30;20399;-76
2020/12/30 13:27:17;;;;;;;24.30;13.90;;;9.50;70.10;;;;;;4779353;30;20063;-77
2020/12/30 13:29:43;;;;;;;27.08;14.45;;;9.50;70.00;;;;;;4773455;30;20342;-76
2020/12/30 13:32:08;;;;;;;23.50;14.15;;;9.50;70.20;;;;;;4783772;30;20036;-77
2020/12/30 13:34:34;;;;;;;28.35;15.60;;;9.60;70.10;;;;;;4778426;30;20036;-77
2020/12/30 13:37:00;;;;;;;30.85;15.90;;;9.50;70.50;;;;;;4779549;30;20192;-77
2020/12/30 13:39:26;;;;;;;26.63;14.48;;;9.50;70.40;;;;;;4779224;30;20047;-76
2020/12/30 13:41:51;;;;;;;29.38;15.43;;;9.50;70.60;;;;;;4778309;30;20092;-76
2020/12/30 13:44:17;;;;;;;30.38;16.20;;;9.60;70.60;;;;;;4777626;30;20043;-77
2020/12/30 13:46:43;;;;;;;26.63;15.60;;;9.60;70.70;;;;;;4777768;30;20058;-75
2020/12/30 13:49:09;;;;;;;28.52;16.48;;;9.70;71.00;;;;;;4777437;30;20040;-76
2020/12/30 13:51:35;;;;;;;27.13;15.02;;;9.70;70.80;;;;;;4777926;30;20362;-78
2020/12/30 13:54:04;;;;;;;29.50;14.65;;;9.70;70.70;;;;;;4778970;30;20024;-77
2020/12/30 13:56:30;;;;;;;24.83;15.52;;;9.70;70.30;;;;;;4777881;30;20047;-76
2020/12/30 13:58:56;;;;;;;26.05;15.10;;;9.70;70.00;;;;;;4777917;30;20036;-76
2020/12/30 14:01:23;;;;;;;24.63;15.75;;;9.80;70.20;;;;;;4778711;30;20040;-76
2020/12/30 14:03:49;;;;;;;25.63;15.43;;;9.80;70.10;;;;;;4773910;30;20320;-76
2020/12/30 14:06:22;;;;;;;26.52;14.13;;;9.80;70.10;;;;;;4772200;30;20039;-76
2020/12/30 14:08:48;;;;;;;28.00;13.88;;;9.80;69.90;;;;;;4780891;30;20295;-76
2020/12/30 14:11:14;;;;;;;29.88;16.02;;;9.80;69.90;;;;;;4778909;30;20038;-76
2020/12/30 14:13:41;;;;;;;22.15;12.95;;;9.90;70.00;;;;;;4791160;30;20031;-76
2020/12/30 14:16:07;;;;;;;23.85;14.23;;;9.90;69.60;;;;;;4787689;30;20092;-77
2020/12/30 14:18:33;;;;;;;28.77;14.60;;;9.90;69.70;;;;;;4790777;30;20261;-76
2020/12/30 14:20:58;;;;;;;28.98;15.88;;;9.90;70.40;;;;;;4777665;30;20024;-77
2020/12/30 14:23:24;;;;;;;29.05;16.58;;;9.90;70.60;;;;;;4778603;30;20024;-77
2020/12/30 14:25:50;;;;;;;29.00;15.85;;;9.90;70.80;;;;;;4772673;30;20046;-78
2020/12/30 14:28:15;;;;;;;27.17;15.65;;;9.90;70.80;;;;;;4782430;30;20032;-77
2020/12/30 14:30:41;;;;;;;30.00;16.05;;;9.90;70.90;;;;;;4798692;30;20044;-77
2020/12/30 14:33:07;;;;;;;26.10;14.48;;;9.90;70.90;;;;;;4786910;30;20039;-77
2020/12/30 14:35:33;;;;;;;28.48;14.55;;;9.90;70.80;;;;;;4795334;30;20040;-77
2020/12/30 14:37:59;;;;;;;26.67;15.80;;;9.90;70.80;;;;;;4781079;30;20041;-77
2020/12/30 14:40:25;;;;;;;24.13;14.80;;;9.90;70.80;;;;;;4784567;30;20062;-76
2020/12/30 14:42:51;;;;;;;33.70;16.27;;;9.90;70.70;;;;;;4783946;30;20036;-76
2020/12/30 14:45:16;;;;;;;30.38;15.85;;;9.90;70.80;;;;;;4783508;30;20177;-76
2020/12/30 14:47:46;;;;;;;28.45;16.98;;;9.80;70.70;;;;;;4783506;30;20059;-76
2020/12/30 14:50:12;;;;;;;32.22;17.27;;;9.70;70.80;;;;;;4781077;30;20335;-76
2020/12/30 14:52:38;;;;;;;26.45;15.45;;;9.70;70.90;;;;;;4771393;30;20027;-76
2020/12/30 14:55:04;;;;;;;27.20;17.02;;;9.60;71.10;;;;;;4791986;30;20043;-76
2020/12/30 14:57:30;;;;;;;32.88;17.48;;;9.60;71.20;;;;;;4771082;30;20056;-76
2020/12/30 14:59:55;;;;;;;32.15;17.33;;;9.50;71.40;;;;;;4784261;30;20051;-75
2020/12/30 15:02:21;;;;;;;36.75;17.77;;;9.50;71.40;;;;;;4772259;30;20031;-76
2020/12/30 15:04:47;;;;;;;31.95;16.73;;;9.40;71.30;;;;;;4771191;30;20066;-75
2020/12/30 15:07:12;;;;;;;34.45;16.63;;;9.30;71.30;;;;;;4780162;30;20613;-75
2020/12/30 15:09:38;;;;;;;26.45;16.73;;;9.20;71.30;;;;;;4776939;30;20074;-76
2020/12/30 15:12:04;;;;;;;31.88;18.65;;;9.20;71.40;;;;;;4778720;30;20087;-76
2020/12/30 15:14:30;;;;;;;33.10;19.05;;;9.10;71.40;;;;;;4778514;30;20339;-75
2020/12/30 15:16:56;;;;;;;32.10;18.50;;;9.00;71.30;;;;;;4776320;30;20023;-76
2020/12/30 15:19:22;;;;;;;30.40;17.58;;;8.90;71.20;;;;;;4783909;30;20035;-75
2020/12/30 15:21:48;;;;;;;29.80;17.00;;;8.80;71.40;;;;;;4776979;30;20099;-75
2020/12/30 15:24:14;;;;;;;27.27;16.08;;;8.70;71.40;;;;;;4766074;30;20032;-76
2020/12/30 15:26:40;;;;;;;32.75;17.65;;;8.70;71.50;;;;;;4772521;30;20032;-76
2020/12/30 15:29:07;;;;;;;32.03;18.50;;;8.60;71.40;;;;;;4780683;30;20024;-77
2020/12/30 15:31:32;;;;;;;34.95;19.20;;;8.40;71.50;;;;;;4781465;30;20085;-77
2020/12/30 15:33:58;;;;;;;34.72;18.90;;;8.40;71.70;;;;;;4781700;30;20040;-77
2020/12/30 15:36:24;;;;;;;38.17;20.20;;;8.30;71.90;;;;;;4774677;30;20061;-77
2020/12/30 15:38:51;;;;;;;38.28;20.35;;;8.20;72.20;;;;;;4762850;30;20319;-76
2020/12/30 15:41:17;;;;;;;39.88;21.08;;;8.20;72.50;;;;;;4768232;30;20097;-76
2020/12/30 15:43:43;;;;;;;39.90;20.98;;;8.10;72.60;;;;;;4781984;30;20035;-77
2020/12/30 15:46:14;;;;;;;44.65;22.42;;;8.10;72.80;;;;;;4779986;30;20232;-76
2020/12/30 15:48:40;;;;;;;45.42;23.50;;;8.00;73.30;;;;;;4795212;30;20077;-76
2020/12/30 15:51:11;;;;;;;54.05;25.95;;;8.00;73.40;;;;;;4779706;30;20040;-76
2020/12/30 15:53:36;;;;;;;47.22;25.08;;;7.90;73.70;;;;;;4781481;30;20323;-76
2020/12/30 15:56:02;;;;;;;49.28;24.92;;;7.90;73.70;;;;;;4780964;30;20035;-76
2020/12/30 15:58:28;;;;;;;47.63;25.38;;;7.90;74.20;;;;;;4765163;30;20077;-75
2020/12/30 16:00:54;;;;;;;43.42;23.30;;;7.80;74.40;;;;;;4763280;30;20035;-76
2020/12/30 16:03:20;;;;;;;43.20;23.65;;;7.80;74.70;;;;;;4777048;30;20097;-75
2020/12/30 16:05:45;;;;;;;48.05;24.17;;;7.80;74.80;;;;;;4762399;30;20052;-75
2020/12/30 16:08:11;;;;;;;48.63;24.27;;;7.80;74.80;;;;;;4762523;30;20032;-76
2020/12/30 16:10:37;;;;;;;45.70;24.27;;;7.70;74.60;;;;;;4763689;30;20082;-75
2020/12/30 16:13:03;;;;;;;41.45;23.40;;;7.70;74.50;;;;;;4778976;30;20035;-75
2020/12/30 16:15:28;;;;;;;62.83;28.77;;;7.60;75.10;;;;;;4784724;30;20055;-75
2020/12/30 16:17:54;;;;;;;43.42;23.95;;;7.60;74.50;;;;;;4780071;30;20066;-75
2020/12/30 16:20:20;;;;;;;52.67;24.77;;;7.50;74.60;;;;;;4781090;30;20039;-74
2020/12/30 16:22:45;;;;;;;50.72;27.75;;;7.50;74.70;;;;;;4780941;30;20047;-75
2020/12/30 16:25:11;;;;;;;69.15;35.00;;;7.50;74.80;;;;;;4781037;30;20043;-74
2020/12/30 16:27:37;;;;;;;52.67;30.05;;;7.50;75.10;;;;;;4772937;30;20047;-74